Airfield :
LOGIN :

Register | Disclaimer

   EN    FR    IT 

 










Legend :    VFR   Marginal VFR   IFR   Intensive IFR   Very Intensive IFR
Visi :
Ceiling :
>= 8 km
>= 3000ft
5 to 8 km
1000 to 3000 ft
1500m to 5 km
500 to 1000 ft
800 to 1500m
200 to 500 ft
< 800m
< 200 ft
Symbols :   Thunderstorms  Fog  Heavy snow  Heavy precipitations  Wind > 20 kt
SIGMETs :     Misc.  Thunderstorms  Icing  Turbulence  Mountain Waves  Volcanic Ashes







- Airport Elevation : 65 ft
- IATA code : PIK
- Download approach charts


EGPK - Glasgow Prestwick

CURRENT METAR :
  • 221350Z 16012KT CAVOK 22/04 Q1004

EXPIRED METARs :
  • 221320Z 16012KT 130V190 CAVOK 22/03 Q1004
  • 221250Z 15013KT CAVOK 22/03 Q1004
  • 221220Z 15014KT 120V180 CAVOK 22/04 Q1005
  • 221150Z 17015KT CAVOK 22/03 Q1005
  • 221120Z 15011KT 120V180 CAVOK 21/04 Q1005

TAF TAF EGPK
Valid from the 22 at 12:00 until the 23 at 12:00 UTC


221101Z 2212/2312 12009KT CAVOK
No reported NOTAMs for that airfield.
1 SIGMET reported for the Scottish FIR (EGPX) :
 
Severe mountain waves
EGPX SIGMET 01 VALID 221125/221525 EGRR
EGPX SCOTTISH FIR SEV MTW OBS WI N5634 W00114 - N5617 W00808 - N5823 W00736 - N6100 W00644 - N6100 W00028 - N5634 W00114 FL040/100 STNR NC=



MET'MAP, your aeronautical weather chart ! - Copyright ORBIFLY December 2007 - Disclaimer

ORBIFLY MET'MAP TEAM :

Programming & Development : Alexandra Zaïnal
Concept & Development : Baudouin d'Aumeries
Co-Development & Prog : Marc-Olivier Méhu
Technical & hardware support : Manuel Goepfert

Contact : metmap@orbifly.com




SOURCES & CREDITS :

   NOAA